sensor_id;sensor_type;location;lat;lon;timestamp;temperature;humidity
54264;DHT22;40178;53.042;6.406;2024-02-23T00:00:27;4.40;99.90
54264;DHT22;40178;53.042;6.406;2024-02-23T00:02:53;4.30;99.90
54264;DHT22;40178;53.042;6.406;2024-02-23T00:05:23;4.30;99.90
54264;DHT22;40178;53.042;6.406;2024-02-23T00:07:49;4.40;99.90
54264;DHT22;40178;53.042;6.406;2024-02-23T00:10:15;4.30;99.90
54264;DHT22;40178;53.042;6.406;2024-02-23T00:12:41;4.40;99.90
54264;DHT22;40178;53.042;6.406;2024-02-23T00:15:07;4.40;99.90
54264;DHT22;40178;53.042;6.406;2024-02-23T00:17:32;4.40;99.90
54264;DHT22;40178;53.042;6.406;2024-02-23T00:19:58;4.40;99.90
54264;DHT22;40178;53.042;6.406;2024-02-23T00:22:24;4.40;99.90
54264;DHT22;40178;53.042;6.406;2024-02-23T00:24:51;4.40;99.90
54264;DHT22;40178;53.042;6.406;2024-02-23T00:27:17;4.30;99.90
54264;DHT22;40178;53.042;6.406;2024-02-23T00:29:42;4.20;99.90
54264;DHT22;40178;53.042;6.406;2024-02-23T00:32:08;4.10;99.90
54264;DHT22;40178;53.042;6.406;2024-02-23T00:34:34;4.00;99.90
54264;DHT22;40178;53.042;6.406;2024-02-23T00:36:59;4.00;99.90
54264;DHT22;40178;53.042;6.406;2024-02-23T00:39:25;4.00;99.90
54264;DHT22;40178;53.042;6.406;2024-02-23T00:41:51;4.00;99.90
54264;DHT22;40178;53.042;6.406;2024-02-23T00:44:16;4.00;99.90
54264;DHT22;40178;53.042;6.406;2024-02-23T00:46:42;4.00;99.90
54264;DHT22;40178;53.042;6.406;2024-02-23T00:49:07;4.00;99.90
54264;DHT22;40178;53.042;6.406;2024-02-23T00:51:33;4.00;99.90
54264;DHT22;40178;53.042;6.406;2024-02-23T00:53:59;4.10;99.90
54264;DHT22;40178;53.042;6.406;2024-02-23T00:56:25;4.10;99.90
54264;DHT22;40178;53.042;6.406;2024-02-23T00:58:50;4.10;99.90
54264;DHT22;40178;53.042;6.406;2024-02-23T01:01:16;4.10;99.90
54264;DHT22;40178;53.042;6.406;2024-02-23T01:03:42;4.10;99.90
54264;DHT22;40178;53.042;6.406;2024-02-23T01:06:07;4.10;99.90
54264;DHT22;40178;53.042;6.406;2024-02-23T01:08:33;4.00;99.90
54264;DHT22;40178;53.042;6.406;2024-02-23T01:10:59;4.00;99.90
54264;DHT22;40178;53.042;6.406;2024-02-23T01:13:25;4.00;99.90
54264;DHT22;40178;53.042;6.406;2024-02-23T01:15:50;3.90;99.90
54264;DHT22;40178;53.042;6.406;2024-02-23T01:18:16;3.90;99.90
54264;DHT22;40178;53.042;6.406;2024-02-23T01:20:42;3.90;99.90
54264;DHT22;40178;53.042;6.406;2024-02-23T01:23:08;3.90;99.90
54264;DHT22;40178;53.042;6.406;2024-02-23T01:25:33;3.90;99.90
54264;DHT22;40178;53.042;6.406;2024-02-23T01:28:00;3.90;99.90
54264;DHT22;40178;53.042;6.406;2024-02-23T01:30:26;3.90;99.90
54264;DHT22;40178;53.042;6.406;2024-02-23T01:32:51;3.90;99.90
54264;DHT22;40178;53.042;6.406;2024-02-23T01:35:17;4.00;99.90
54264;DHT22;40178;53.042;6.406;2024-02-23T01:37:43;4.00;99.90
54264;DHT22;40178;53.042;6.406;2024-02-23T01:40:09;4.00;99.90
54264;DHT22;40178;53.042;6.406;2024-02-23T01:42:35;4.10;99.90
54264;DHT22;40178;53.042;6.406;2024-02-23T01:45:00;4.10;99.90
54264;DHT22;40178;53.042;6.406;2024-02-23T01:47:29;4.20;99.90
54264;DHT22;40178;53.042;6.406;2024-02-23T01:49:59;4.20;99.90
54264;DHT22;40178;53.042;6.406;2024-02-23T01:52:25;4.20;99.90
54264;DHT22;40178;53.042;6.406;2024-02-23T01:54:52;4.20;99.90
54264;DHT22;40178;53.042;6.406;2024-02-23T01:57:18;4.30;99.90
54264;DHT22;40178;53.042;6.406;2024-02-23T01:59:44;4.30;99.90
54264;DHT22;40178;53.042;6.406;2024-02-23T02:02:10;4.30;99.90
54264;DHT22;40178;53.042;6.406;2024-02-23T02:04:35;4.40;99.90
54264;DHT22;40178;53.042;6.406;2024-02-23T02:07:01;4.40;99.90
54264;DHT22;40178;53.042;6.406;2024-02-23T02:09:27;4.50;99.90
54264;DHT22;40178;53.042;6.406;2024-02-23T02:11:53;4.60;99.90
54264;DHT22;40178;53.042;6.406;2024-02-23T02:14:18;4.60;99.90
54264;DHT22;40178;53.042;6.406;2024-02-23T02:16:44;4.70;99.90
54264;DHT22;40178;53.042;6.406;2024-02-23T02:19:11;4.70;99.90
54264;DHT22;40178;53.042;6.406;2024-02-23T02:21:37;4.80;99.90
54264;DHT22;40178;53.042;6.406;2024-02-23T02:24:03;4.90;99.90
54264;DHT22;40178;53.042;6.406;2024-02-23T02:26:29;4.90;99.90
54264;DHT22;40178;53.042;6.406;2024-02-23T02:28:55;5.00;99.90
54264;DHT22;40178;53.042;6.406;2024-02-23T02:31:20;5.00;99.90
54264;DHT22;40178;53.042;6.406;2024-02-23T02:33:46;5.00;99.90
54264;DHT22;40178;53.042;6.406;2024-02-23T02:36:12;5.00;99.90
54264;DHT22;40178;53.042;6.406;2024-02-23T02:38:38;5.00;99.90
54264;DHT22;40178;53.042;6.406;2024-02-23T02:41:04;5.00;99.90
54264;DHT22;40178;53.042;6.406;2024-02-23T02:43:30;5.00;99.90
54264;DHT22;40178;53.042;6.406;2024-02-23T02:45:56;4.90;99.90
54264;DHT22;40178;53.042;6.406;2024-02-23T02:48:22;4.90;99.90
54264;DHT22;40178;53.042;6.406;2024-02-23T02:50:48;4.90;99.90
54264;DHT22;40178;53.042;6.406;2024-02-23T02:53:15;4.90;99.90
54264;DHT22;40178;53.042;6.406;2024-02-23T02:55:44;4.90;99.90
54264;DHT22;40178;53.042;6.406;2024-02-23T02:58:11;4.90;99.90
54264;DHT22;40178;53.042;6.406;2024-02-23T03:00:38;5.00;99.90
54264;DHT22;40178;53.042;6.406;2024-02-23T03:03:04;4.90;99.90
54264;DHT22;40178;53.042;6.406;2024-02-23T03:05:29;4.90;99.90
54264;DHT22;40178;53.042;6.406;2024-02-23T03:07:55;5.00;99.90
54264;DHT22;40178;53.042;6.406;2024-02-23T03:10:21;4.90;99.90
54264;DHT22;40178;53.042;6.406;2024-02-23T03:12:46;4.90;99.90
54264;DHT22;40178;53.042;6.406;2024-02-23T03:15:12;4.90;99.90
54264;DHT22;40178;53.042;6.406;2024-02-23T03:17:38;4.90;99.90
54264;DHT22;40178;53.042;6.406;2024-02-23T03:20:04;4.80;99.90
54264;DHT22;40178;53.042;6.406;2024-02-23T03:22:37;4.80;99.90
54264;DHT22;40178;53.042;6.406;2024-02-23T03:25:03;4.80;99.90
54264;DHT22;40178;53.042;6.406;2024-02-23T03:27:38;4.80;99.90
54264;DHT22;40178;53.042;6.406;2024-02-23T03:30:05;4.80;99.90
54264;DHT22;40178;53.042;6.406;2024-02-23T03:32:31;4.70;99.90
54264;DHT22;40178;53.042;6.406;2024-02-23T03:35:05;4.70;99.90
54264;DHT22;40178;53.042;6.406;2024-02-23T03:37:31;4.60;99.90
54264;DHT22;40178;53.042;6.406;2024-02-23T03:39:57;4.60;99.90
54264;DHT22;40178;53.042;6.406;2024-02-23T03:42:23;4.70;99.90
54264;DHT22;40178;53.042;6.406;2024-02-23T03:44:48;4.70;99.90
54264;DHT22;40178;53.042;6.406;2024-02-23T03:47:14;4.70;99.90
54264;DHT22;40178;53.042;6.406;2024-02-23T03:49:40;4.70;99.90
54264;DHT22;40178;53.042;6.406;2024-02-23T03:52:05;4.60;99.90
54264;DHT22;40178;53.042;6.406;2024-02-23T03:54:31;4.70;99.90
54264;DHT22;40178;53.042;6.406;2024-02-23T03:56:57;4.60;99.90
54264;DHT22;40178;53.042;6.406;2024-02-23T03:59:23;4.60;99.90
54264;DHT22;40178;53.042;6.406;2024-02-23T04:01:49;4.60;99.90
54264;DHT22;40178;53.042;6.406;2024-02-23T04:04:15;4.50;99.90
54264;DHT22;40178;53.042;6.406;2024-02-23T04:06:40;4.50;99.90
54264;DHT22;40178;53.042;6.406;2024-02-23T04:09:06;4.40;99.90
54264;DHT22;40178;53.042;6.406;2024-02-23T04:11:34;4.40;99.90
54264;DHT22;40178;53.042;6.406;2024-02-23T04:14:00;4.40;99.90
54264;DHT22;40178;53.042;6.406;2024-02-23T04:16:26;4.40;99.90
54264;DHT22;40178;53.042;6.406;2024-02-23T04:18:53;4.40;99.90
54264;DHT22;40178;53.042;6.406;2024-02-23T04:21:18;4.50;99.90
54264;DHT22;40178;53.042;6.406;2024-02-23T04:23:44;4.50;99.90
54264;DHT22;40178;53.042;6.406;2024-02-23T04:26:10;4.40;99.90
54264;DHT22;40178;53.042;6.406;2024-02-23T04:28:39;4.40;99.90
54264;DHT22;40178;53.042;6.406;2024-02-23T04:31:04;4.40;99.90
54264;DHT22;40178;53.042;6.406;2024-02-23T04:33:30;4.40;99.90
54264;DHT22;40178;53.042;6.406;2024-02-23T04:35:56;4.40;99.90
54264;DHT22;40178;53.042;6.406;2024-02-23T04:38:21;4.30;99.90
54264;DHT22;40178;53.042;6.406;2024-02-23T04:40:47;4.30;99.90
54264;DHT22;40178;53.042;6.406;2024-02-23T04:43:13;4.30;99.90
54264;DHT22;40178;53.042;6.406;2024-02-23T04:45:39;4.20;99.90
54264;DHT22;40178;53.042;6.406;2024-02-23T04:48:04;4.20;99.90
54264;DHT22;40178;53.042;6.406;2024-02-23T04:50:30;4.20;99.90
54264;DHT22;40178;53.042;6.406;2024-02-23T04:52:56;4.20;99.90
54264;DHT22;40178;53.042;6.406;2024-02-23T04:55:21;4.10;99.90
54264;DHT22;40178;53.042;6.406;2024-02-23T04:57:47;4.10;99.90
54264;DHT22;40178;53.042;6.406;2024-02-23T05:00:13;4.10;99.90
54264;DHT22;40178;53.042;6.406;2024-02-23T05:02:39;4.00;99.90
54264;DHT22;40178;53.042;6.406;2024-02-23T05:05:05;4.00;99.90
54264;DHT22;40178;53.042;6.406;2024-02-23T05:07:31;4.00;99.90
54264;DHT22;40178;53.042;6.406;2024-02-23T05:09:57;4.10;99.90
54264;DHT22;40178;53.042;6.406;2024-02-23T05:12:23;4.00;99.90
54264;DHT22;40178;53.042;6.406;2024-02-23T05:14:49;4.10;99.90
54264;DHT22;40178;53.042;6.406;2024-02-23T05:17:14;4.10;99.90
54264;DHT22;40178;53.042;6.406;2024-02-23T05:19:40;4.20;99.90
54264;DHT22;40178;53.042;6.406;2024-02-23T05:22:05;4.20;99.90
54264;DHT22;40178;53.042;6.406;2024-02-23T05:24:31;4.10;99.90
54264;DHT22;40178;53.042;6.406;2024-02-23T05:26:57;4.10;99.90
54264;DHT22;40178;53.042;6.406;2024-02-23T05:29:24;4.10;99.90
54264;DHT22;40178;53.042;6.406;2024-02-23T05:31:52;4.00;99.90
54264;DHT22;40178;53.042;6.406;2024-02-23T05:34:17;4.10;99.90
54264;DHT22;40178;53.042;6.406;2024-02-23T05:36:47;4.10;99.90
54264;DHT22;40178;53.042;6.406;2024-02-23T05:39:13;4.10;99.90
54264;DHT22;40178;53.042;6.406;2024-02-23T05:41:41;4.10;99.90
54264;DHT22;40178;53.042;6.406;2024-02-23T05:44:07;4.20;99.90
54264;DHT22;40178;53.042;6.406;2024-02-23T05:46:36;4.20;99.90
54264;DHT22;40178;53.042;6.406;2024-02-23T05:49:02;4.20;99.90
54264;DHT22;40178;53.042;6.406;2024-02-23T05:51:30;4.20;99.90
54264;DHT22;40178;53.042;6.406;2024-02-23T05:53:56;4.10;99.90
54264;DHT22;40178;53.042;6.406;2024-02-23T05:56:22;4.10;99.90
54264;DHT22;40178;53.042;6.406;2024-02-23T05:58:49;4.00;99.90
54264;DHT22;40178;53.042;6.406;2024-02-23T06:01:14;4.00;99.90
54264;DHT22;40178;53.042;6.406;2024-02-23T06:03:40;3.90;99.90
54264;DHT22;40178;53.042;6.406;2024-02-23T06:06:09;3.90;99.90
54264;DHT22;40178;53.042;6.406;2024-02-23T06:08:35;3.90;99.90
54264;DHT22;40178;53.042;6.406;2024-02-23T06:11:01;3.90;99.90
54264;DHT22;40178;53.042;6.406;2024-02-23T06:13:29;3.90;99.90
54264;DHT22;40178;53.042;6.406;2024-02-23T06:15:55;3.90;99.90
54264;DHT22;40178;53.042;6.406;2024-02-23T06:18:20;3.90;99.90
54264;DHT22;40178;53.042;6.406;2024-02-23T06:20:46;3.90;99.90
54264;DHT22;40178;53.042;6.406;2024-02-23T06:23:11;3.90;99.90
54264;DHT22;40178;53.042;6.406;2024-02-23T06:25:38;3.90;99.90
54264;DHT22;40178;53.042;6.406;2024-02-23T06:28:05;3.90;99.90
54264;DHT22;40178;53.042;6.406;2024-02-23T06:30:31;3.90;99.90
54264;DHT22;40178;53.042;6.406;2024-02-23T06:32:57;3.90;99.90
54264;DHT22;40178;53.042;6.406;2024-02-23T06:35:23;3.90;99.90
54264;DHT22;40178;53.042;6.406;2024-02-23T06:37:48;3.90;99.90
54264;DHT22;40178;53.042;6.406;2024-02-23T06:40:14;3.90;99.90
54264;DHT22;40178;53.042;6.406;2024-02-23T06:42:40;4.20;99.90
54264;DHT22;40178;53.042;6.406;2024-02-23T06:45:06;3.80;99.90
54264;DHT22;40178;53.042;6.406;2024-02-23T06:47:33;3.90;99.90
54264;DHT22;40178;53.042;6.406;2024-02-23T06:49:59;3.90;99.90
54264;DHT22;40178;53.042;6.406;2024-02-23T06:52:25;4.00;99.90
54264;DHT22;40178;53.042;6.406;2024-02-23T06:54:51;4.00;99.90
54264;DHT22;40178;53.042;6.406;2024-02-23T06:57:17;4.00;99.90
54264;DHT22;40178;53.042;6.406;2024-02-23T06:59:43;4.10;99.90
54264;DHT22;40178;53.042;6.406;2024-02-23T07:02:08;4.10;99.90
54264;DHT22;40178;53.042;6.406;2024-02-23T07:04:34;4.10;99.90
54264;DHT22;40178;53.042;6.406;2024-02-23T07:07:00;4.10;99.90
54264;DHT22;40178;53.042;6.406;2024-02-23T07:09:32;4.10;99.90
54264;DHT22;40178;53.042;6.406;2024-02-23T07:11:57;4.20;99.90
54264;DHT22;40178;53.042;6.406;2024-02-23T07:14:23;4.20;99.90
54264;DHT22;40178;53.042;6.406;2024-02-23T07:16:48;4.20;99.90
54264;DHT22;40178;53.042;6.406;2024-02-23T07:19:14;4.20;99.90
54264;DHT22;40178;53.042;6.406;2024-02-23T07:21:40;4.20;99.90
54264;DHT22;40178;53.042;6.406;2024-02-23T07:24:05;4.30;99.90
54264;DHT22;40178;53.042;6.406;2024-02-23T07:26:31;4.20;99.90
54264;DHT22;40178;53.042;6.406;2024-02-23T07:28:57;4.20;99.90
54264;DHT22;40178;53.042;6.406;2024-02-23T07:31:23;4.20;99.90
54264;DHT22;40178;53.042;6.406;2024-02-23T07:33:48;4.20;99.90
54264;DHT22;40178;53.042;6.406;2024-02-23T07:36:17;4.20;99.90
54264;DHT22;40178;53.042;6.406;2024-02-23T07:38:43;4.20;99.90
54264;DHT22;40178;53.042;6.406;2024-02-23T07:41:10;4.20;99.90
54264;DHT22;40178;53.042;6.406;2024-02-23T07:43:36;4.20;99.90
54264;DHT22;40178;53.042;6.406;2024-02-23T07:46:02;4.40;99.90
54264;DHT22;40178;53.042;6.406;2024-02-23T07:48:28;4.40;99.90
54264;DHT22;40178;53.042;6.406;2024-02-23T07:50:53;4.40;99.90
54264;DHT22;40178;53.042;6.406;2024-02-23T07:53:19;4.50;99.90
54264;DHT22;40178;53.042;6.406;2024-02-23T07:55:44;4.50;99.90
54264;DHT22;40178;53.042;6.406;2024-02-23T07:58:10;4.60;99.90
54264;DHT22;40178;53.042;6.406;2024-02-23T08:00:36;4.60;99.90
54264;DHT22;40178;53.042;6.406;2024-02-23T08:03:04;4.60;99.90
54264;DHT22;40178;53.042;6.406;2024-02-23T08:05:30;4.60;99.90
54264;DHT22;40178;53.042;6.406;2024-02-23T08:07:55;4.60;99.90
54264;DHT22;40178;53.042;6.406;2024-02-23T08:10:21;4.60;99.90
54264;DHT22;40178;53.042;6.406;2024-02-23T08:12:47;4.60;99.90
54264;DHT22;40178;53.042;6.406;2024-02-23T08:15:12;4.60;99.90
54264;DHT22;40178;53.042;6.406;2024-02-23T08:17:38;4.60;99.90
54264;DHT22;40178;53.042;6.406;2024-02-23T08:20:04;4.70;99.90
54264;DHT22;40178;53.042;6.406;2024-02-23T08:22:30;4.60;99.90
54264;DHT22;40178;53.042;6.406;2024-02-23T08:24:56;4.70;99.90
54264;DHT22;40178;53.042;6.406;2024-02-23T08:27:22;4.70;99.90
54264;DHT22;40178;53.042;6.406;2024-02-23T08:29:48;4.80;99.90
54264;DHT22;40178;53.042;6.406;2024-02-23T08:32:13;4.80;99.90
54264;DHT22;40178;53.042;6.406;2024-02-23T08:34:39;4.80;99.90
54264;DHT22;40178;53.042;6.406;2024-02-23T08:37:05;4.80;99.90
54264;DHT22;40178;53.042;6.406;2024-02-23T08:39:30;4.90;99.90
54264;DHT22;40178;53.042;6.406;2024-02-23T08:41:56;4.90;99.90
54264;DHT22;40178;53.042;6.406;2024-02-23T08:44:21;4.90;99.90
54264;DHT22;40178;53.042;6.406;2024-02-23T08:46:47;5.00;99.90
54264;DHT22;40178;53.042;6.406;2024-02-23T08:49:14;5.10;99.90
54264;DHT22;40178;53.042;6.406;2024-02-23T08:51:39;5.10;99.90
54264;DHT22;40178;53.042;6.406;2024-02-23T08:54:06;5.10;99.90
54264;DHT22;40178;53.042;6.406;2024-02-23T08:56:37;5.10;99.90
54264;DHT22;40178;53.042;6.406;2024-02-23T08:59:03;5.10;99.90
54264;DHT22;40178;53.042;6.406;2024-02-23T09:01:29;5.20;99.90
54264;DHT22;40178;53.042;6.406;2024-02-23T09:03:54;5.20;99.90
54264;DHT22;40178;53.042;6.406;2024-02-23T09:06:20;5.30;99.90
54264;DHT22;40178;53.042;6.406;2024-02-23T09:08:46;5.30;99.90
54264;DHT22;40178;53.042;6.406;2024-02-23T09:11:11;5.40;99.90
54264;DHT22;40178;53.042;6.406;2024-02-23T09:13:38;5.40;99.90
54264;DHT22;40178;53.042;6.406;2024-02-23T09:16:04;5.50;99.90
54264;DHT22;40178;53.042;6.406;2024-02-23T09:18:30;5.60;99.90
54264;DHT22;40178;53.042;6.406;2024-02-23T09:20:55;5.70;99.90
54264;DHT22;40178;53.042;6.406;2024-02-23T09:23:21;5.80;99.90
54264;DHT22;40178;53.042;6.406;2024-02-23T09:25:47;5.90;99.90
54264;DHT22;40178;53.042;6.406;2024-02-23T09:28:12;5.90;99.90
54264;DHT22;40178;53.042;6.406;2024-02-23T09:30:38;5.80;99.90
54264;DHT22;40178;53.042;6.406;2024-02-23T09:33:04;5.80;99.90
54264;DHT22;40178;53.042;6.406;2024-02-23T09:35:29;5.80;99.90
54264;DHT22;40178;53.042;6.406;2024-02-23T09:37:56;5.80;99.90
54264;DHT22;40178;53.042;6.406;2024-02-23T09:40:21;5.80;99.90
54264;DHT22;40178;53.042;6.406;2024-02-23T09:42:56;5.90;99.90
54264;DHT22;40178;53.042;6.406;2024-02-23T09:45:22;5.90;99.90
54264;DHT22;40178;53.042;6.406;2024-02-23T09:47:49;5.90;99.90
54264;DHT22;40178;53.042;6.406;2024-02-23T09:50:15;6.00;99.90
54264;DHT22;40178;53.042;6.406;2024-02-23T09:52:43;6.10;99.90
54264;DHT22;40178;53.042;6.406;2024-02-23T09:55:08;6.20;99.90
54264;DHT22;40178;53.042;6.406;2024-02-23T09:57:36;6.20;99.90
54264;DHT22;40178;53.042;6.406;2024-02-23T10:00:02;6.30;99.90
54264;DHT22;40178;53.042;6.406;2024-02-23T10:02:32;6.40;99.90
54264;DHT22;40178;53.042;6.406;2024-02-23T10:05:00;6.40;99.90
54264;DHT22;40178;53.042;6.406;2024-02-23T10:07:26;6.50;99.90
54264;DHT22;40178;53.042;6.406;2024-02-23T10:09:53;6.50;99.90
54264;DHT22;40178;53.042;6.406;2024-02-23T10:12:18;6.50;99.90
54264;DHT22;40178;53.042;6.406;2024-02-23T10:14:44;6.40;99.90
54264;DHT22;40178;53.042;6.406;2024-02-23T10:17:10;6.30;99.90
54264;DHT22;40178;53.042;6.406;2024-02-23T10:19:35;6.30;99.90
54264;DHT22;40178;53.042;6.406;2024-02-23T10:22:02;6.30;99.90
54264;DHT22;40178;53.042;6.406;2024-02-23T10:24:28;6.30;99.90
54264;DHT22;40178;53.042;6.406;2024-02-23T10:26:53;6.20;99.90
54264;DHT22;40178;53.042;6.406;2024-02-23T10:29:20;6.30;99.90
54264;DHT22;40178;53.042;6.406;2024-02-23T10:31:47;6.30;99.90
54264;DHT22;40178;53.042;6.406;2024-02-23T10:34:19;6.30;99.90
54264;DHT22;40178;53.042;6.406;2024-02-23T10:36:45;6.30;99.90
54264;DHT22;40178;53.042;6.406;2024-02-23T10:39:18;6.30;99.90
54264;DHT22;40178;53.042;6.406;2024-02-23T10:41:57;6.20;99.90
54264;DHT22;40178;53.042;6.406;2024-02-23T10:44:28;6.20;99.90
54264;DHT22;40178;53.042;6.406;2024-02-23T10:46:54;6.20;99.90
54264;DHT22;40178;53.042;6.406;2024-02-23T10:49:21;6.20;99.90
54264;DHT22;40178;53.042;6.406;2024-02-23T10:51:51;6.30;99.90
54264;DHT22;40178;53.042;6.406;2024-02-23T10:54:19;6.30;99.90
54264;DHT22;40178;53.042;6.406;2024-02-23T10:56:54;6.30;99.90
54264;DHT22;40178;53.042;6.406;2024-02-23T10:59:21;6.40;99.90
54264;DHT22;40178;53.042;6.406;2024-02-23T11:01:54;6.40;99.90
54264;DHT22;40178;53.042;6.406;2024-02-23T11:04:23;6.40;99.90
54264;DHT22;40178;53.042;6.406;2024-02-23T11:06:59;6.40;99.90
54264;DHT22;40178;53.042;6.406;2024-02-23T11:09:31;6.30;99.90
54264;DHT22;40178;53.042;6.406;2024-02-23T11:11:58;6.20;99.90
54264;DHT22;40178;53.042;6.406;2024-02-23T11:14:35;6.20;99.90
54264;DHT22;40178;53.042;6.406;2024-02-23T11:17:02;6.00;99.90
54264;DHT22;40178;53.042;6.406;2024-02-23T11:19:39;6.00;99.90
54264;DHT22;40178;53.042;6.406;2024-02-23T11:22:05;6.00;99.90
54264;DHT22;40178;53.042;6.406;2024-02-23T11:24:31;6.00;99.90
54264;DHT22;40178;53.042;6.406;2024-02-23T11:27:01;6.00;99.90
54264;DHT22;40178;53.042;6.406;2024-02-23T11:29:33;6.00;99.90
54264;DHT22;40178;53.042;6.406;2024-02-23T11:32:00;6.00;99.90
54264;DHT22;40178;53.042;6.406;2024-02-23T11:34:29;6.00;99.90
54264;DHT22;40178;53.042;6.406;2024-02-23T11:36:55;6.00;99.90
54264;DHT22;40178;53.042;6.406;2024-02-23T11:39:22;6.00;99.90
54264;DHT22;40178;53.042;6.406;2024-02-23T11:41:49;6.00;99.90
54264;DHT22;40178;53.042;6.406;2024-02-23T11:44:15;6.00;99.90
54264;DHT22;40178;53.042;6.406;2024-02-23T11:46:43;6.00;99.90
54264;DHT22;40178;53.042;6.406;2024-02-23T11:49:10;5.90;99.90
54264;DHT22;40178;53.042;6.406;2024-02-23T11:51:36;5.90;99.90
54264;DHT22;40178;53.042;6.406;2024-02-23T11:54:02;6.00;99.90
54264;DHT22;40178;53.042;6.406;2024-02-23T11:56:29;6.00;99.90
54264;DHT22;40178;53.042;6.406;2024-02-23T11:58:55;6.00;99.90
54264;DHT22;40178;53.042;6.406;2024-02-23T12:01:21;6.00;99.90
54264;DHT22;40178;53.042;6.406;2024-02-23T12:03:47;6.00;99.90
54264;DHT22;40178;53.042;6.406;2024-02-23T12:06:14;6.10;99.90
54264;DHT22;40178;53.042;6.406;2024-02-23T12:08:44;6.10;99.90
54264;DHT22;40178;53.042;6.406;2024-02-23T12:11:11;6.10;99.90
54264;DHT22;40178;53.042;6.406;2024-02-23T12:13:39;6.10;99.90
54264;DHT22;40178;53.042;6.406;2024-02-23T12:16:07;6.20;99.90
54264;DHT22;40178;53.042;6.406;2024-02-23T12:18:33;6.20;99.90
54264;DHT22;40178;53.042;6.406;2024-02-23T12:21:05;6.20;99.90
54264;DHT22;40178;53.042;6.406;2024-02-23T12:23:41;6.20;99.90
54264;DHT22;40178;53.042;6.406;2024-02-23T12:26:08;6.20;99.90
54264;DHT22;40178;53.042;6.406;2024-02-23T12:28:33;6.30;99.90
54264;DHT22;40178;53.042;6.406;2024-02-23T12:31:00;6.40;99.90
54264;DHT22;40178;53.042;6.406;2024-02-23T12:33:33;6.40;99.90
54264;DHT22;40178;53.042;6.406;2024-02-23T12:36:00;6.40;99.90
54264;DHT22;40178;53.042;6.406;2024-02-23T12:38:26;6.40;99.90
54264;DHT22;40178;53.042;6.406;2024-02-23T12:40:51;6.40;99.90
54264;DHT22;40178;53.042;6.406;2024-02-23T12:43:18;6.50;99.90
54264;DHT22;40178;53.042;6.406;2024-02-23T12:45:47;6.50;99.90
54264;DHT22;40178;53.042;6.406;2024-02-23T12:48:15;6.60;99.90
54264;DHT22;40178;53.042;6.406;2024-02-23T12:50:41;6.60;99.90
54264;DHT22;40178;53.042;6.406;2024-02-23T12:53:08;6.70;99.90
54264;DHT22;40178;53.042;6.406;2024-02-23T12:55:35;6.70;99.90
54264;DHT22;40178;53.042;6.406;2024-02-23T12:58:02;6.60;99.90
54264;DHT22;40178;53.042;6.406;2024-02-23T13:00:28;6.60;99.90
54264;DHT22;40178;53.042;6.406;2024-02-23T13:02:53;6.60;99.90
54264;DHT22;40178;53.042;6.406;2024-02-23T13:05:19;6.60;99.90
54264;DHT22;40178;53.042;6.406;2024-02-23T13:07:45;6.60;99.90
54264;DHT22;40178;53.042;6.406;2024-02-23T13:10:12;6.60;99.90
54264;DHT22;40178;53.042;6.406;2024-02-23T13:12:38;6.60;99.90
54264;DHT22;40178;53.042;6.406;2024-02-23T13:15:04;6.60;99.90
54264;DHT22;40178;53.042;6.406;2024-02-23T13:17:30;6.60;99.90
54264;DHT22;40178;53.042;6.406;2024-02-23T13:19:55;6.60;99.90
54264;DHT22;40178;53.042;6.406;2024-02-23T13:22:21;6.60;99.90
54264;DHT22;40178;53.042;6.406;2024-02-23T13:24:46;6.60;99.90
54264;DHT22;40178;53.042;6.406;2024-02-23T13:27:12;6.50;99.90
54264;DHT22;40178;53.042;6.406;2024-02-23T13:29:38;6.60;99.90
54264;DHT22;40178;53.042;6.406;2024-02-23T13:32:04;6.60;99.90
54264;DHT22;40178;53.042;6.406;2024-02-23T13:34:29;6.70;99.90
54264;DHT22;40178;53.042;6.406;2024-02-23T13:36:55;6.80;99.90
54264;DHT22;40178;53.042;6.406;2024-02-23T13:39:20;6.80;99.90
54264;DHT22;40178;53.042;6.406;2024-02-23T13:41:46;6.80;99.90
54264;DHT22;40178;53.042;6.406;2024-02-23T13:44:12;6.80;99.90
54264;DHT22;40178;53.042;6.406;2024-02-23T13:46:40;6.80;99.90
54264;DHT22;40178;53.042;6.406;2024-02-23T13:49:07;6.90;99.90
54264;DHT22;40178;53.042;6.406;2024-02-23T13:51:34;6.90;99.90
54264;DHT22;40178;53.042;6.406;2024-02-23T13:54:00;6.90;99.90
54264;DHT22;40178;53.042;6.406;2024-02-23T13:56:26;7.00;99.90
54264;DHT22;40178;53.042;6.406;2024-02-23T13:58:51;7.00;99.90
54264;DHT22;40178;53.042;6.406;2024-02-23T14:01:17;7.00;99.90
54264;DHT22;40178;53.042;6.406;2024-02-23T14:03:43;7.10;99.90
54264;DHT22;40178;53.042;6.406;2024-02-23T14:06:09;7.10;99.90
54264;DHT22;40178;53.042;6.406;2024-02-23T14:08:35;7.10;99.90
54264;DHT22;40178;53.042;6.406;2024-02-23T14:11:03;7.20;99.90
54264;DHT22;40178;53.042;6.406;2024-02-23T14:13:31;7.10;99.90
54264;DHT22;40178;53.042;6.406;2024-02-23T14:15:58;7.10;99.90
54264;DHT22;40178;53.042;6.406;2024-02-23T14:18:23;7.20;99.90
54264;DHT22;40178;53.042;6.406;2024-02-23T14:20:49;7.20;99.90
54264;DHT22;40178;53.042;6.406;2024-02-23T14:23:15;7.10;99.90
54264;DHT22;40178;53.042;6.406;2024-02-23T14:25:40;7.00;99.90
54264;DHT22;40178;53.042;6.406;2024-02-23T14:28:06;6.90;99.90
54264;DHT22;40178;53.042;6.406;2024-02-23T14:30:32;6.90;99.90
54264;DHT22;40178;53.042;6.406;2024-02-23T14:32:57;7.00;99.90
54264;DHT22;40178;53.042;6.406;2024-02-23T14:35:23;7.00;99.90
54264;DHT22;40178;53.042;6.406;2024-02-23T14:37:48;7.00;99.90
54264;DHT22;40178;53.042;6.406;2024-02-23T14:40:14;7.00;99.90
54264;DHT22;40178;53.042;6.406;2024-02-23T14:42:40;7.00;99.90
54264;DHT22;40178;53.042;6.406;2024-02-23T14:45:06;7.00;99.90
54264;DHT22;40178;53.042;6.406;2024-02-23T14:47:32;6.90;99.90
54264;DHT22;40178;53.042;6.406;2024-02-23T14:49:59;6.90;99.90
54264;DHT22;40178;53.042;6.406;2024-02-23T14:52:25;6.80;99.90
54264;DHT22;40178;53.042;6.406;2024-02-23T14:54:51;6.80;99.90
54264;DHT22;40178;53.042;6.406;2024-02-23T14:57:16;6.80;99.90
54264;DHT22;40178;53.042;6.406;2024-02-23T14:59:42;6.90;99.90
54264;DHT22;40178;53.042;6.406;2024-02-23T15:02:19;6.90;99.90
54264;DHT22;40178;53.042;6.406;2024-02-23T15:04:45;7.00;99.90
54264;DHT22;40178;53.042;6.406;2024-02-23T15:07:11;6.90;99.90
54264;DHT22;40178;53.042;6.406;2024-02-23T15:09:36;7.00;99.90
54264;DHT22;40178;53.042;6.406;2024-02-23T15:12:02;7.00;99.90
54264;DHT22;40178;53.042;6.406;2024-02-23T15:14:27;7.00;99.90
54264;DHT22;40178;53.042;6.406;2024-02-23T15:16:53;7.00;99.90
54264;DHT22;40178;53.042;6.406;2024-02-23T15:19:19;7.10;99.90
54264;DHT22;40178;53.042;6.406;2024-02-23T15:21:44;7.00;99.90
54264;DHT22;40178;53.042;6.406;2024-02-23T15:24:10;7.00;99.90
54264;DHT22;40178;53.042;6.406;2024-02-23T15:26:36;7.00;99.90
54264;DHT22;40178;53.042;6.406;2024-02-23T15:29:01;7.00;99.90
54264;DHT22;40178;53.042;6.406;2024-02-23T15:31:29;7.00;99.90
54264;DHT22;40178;53.042;6.406;2024-02-23T15:33:54;6.90;99.90
54264;DHT22;40178;53.042;6.406;2024-02-23T15:36:22;6.90;99.90
54264;DHT22;40178;53.042;6.406;2024-02-23T15:38:48;6.90;99.90